createdAt,value
2022-12-03T00:01:40.014Z,10.67
2022-12-03T00:04:41.672Z,12.20
2022-12-03T00:07:43.329Z,12.23
2022-12-03T00:10:45.135Z,11.43
2022-12-03T00:13:46.955Z,10.97
2022-12-03T00:16:48.598Z,11.33
2022-12-03T00:19:50.282Z,10.93
2022-12-03T00:22:52.899Z,12.03
2022-12-03T00:25:54.526Z,11.80
2022-12-03T00:28:57.573Z,10.33
2022-12-03T00:31:59.220Z,12.13
2022-12-03T00:35:01.032Z,11.47
2022-12-03T00:38:02.727Z,11.53
2022-12-03T00:41:04.475Z,12.70
2022-12-03T00:44:08.968Z,11.80
2022-12-03T00:47:10.762Z,13.67
2022-12-03T00:50:12.723Z,14.17
2022-12-03T00:53:14.447Z,14.00
2022-12-03T00:56:16.245Z,13.80
2022-12-03T00:59:18.019Z,14.40
2022-12-03T01:02:19.874Z,14.40
2022-12-03T01:05:21.670Z,13.87
2022-12-03T01:08:23.401Z,12.40
2022-12-03T01:11:41.361Z,13.63
2022-12-03T01:14:43.149Z,13.47
2022-12-03T01:17:44.886Z,13.80
2022-12-03T01:20:46.641Z,14.57
2022-12-03T01:23:48.328Z,13.67
2022-12-03T01:26:50.112Z,14.00
2022-12-03T01:29:51.846Z,13.07
2022-12-03T01:32:53.479Z,14.20
2022-12-03T01:35:55.168Z,14.80
2022-12-03T01:38:56.900Z,14.17
2022-12-03T01:41:58.861Z,14.33
2022-12-03T01:45:03.068Z,13.73
2022-12-03T01:48:04.903Z,14.87
2022-12-03T01:51:07.209Z,14.17
2022-12-03T01:54:16.568Z,12.97
2022-12-03T01:57:29.763Z,14.70
2022-12-03T02:00:31.708Z,15.47
2022-12-03T02:03:33.382Z,14.40
2022-12-03T02:06:35.137Z,13.43
2022-12-03T02:09:36.752Z,13.67
2022-12-03T02:12:43.783Z,14.83
2022-12-03T02:15:48.644Z,14.20
2022-12-03T02:18:50.557Z,13.70
2022-12-03T02:22:22.024Z,14.07
2022-12-03T02:25:26.446Z,13.43
2022-12-03T02:28:28.343Z,14.20
2022-12-03T02:31:30.116Z,14.07
2022-12-03T02:34:37.848Z,13.47
2022-12-03T02:37:39.655Z,13.97
2022-12-03T02:40:43.239Z,14.27
2022-12-03T02:43:44.903Z,14.30
2022-12-03T02:46:46.685Z,14.17
2022-12-03T02:49:49.295Z,13.60
2022-12-03T02:52:53.101Z,14.17
2022-12-03T02:55:56.582Z,12.33
2022-12-03T02:59:03.010Z,14.00
2022-12-03T03:02:04.723Z,13.23
2022-12-03T03:05:08.194Z,12.03
2022-12-03T03:08:12.694Z,11.73
2022-12-03T03:11:14.446Z,11.97
2022-12-03T03:14:16.196Z,12.17
2022-12-03T03:17:17.907Z,10.50
2022-12-03T03:20:19.784Z,11.23
2022-12-03T03:23:23.285Z,10.63
2022-12-03T03:26:25.162Z,10.37
2022-12-03T03:29:27.124Z,9.90
2022-12-03T03:32:29.604Z,11.17
2022-12-03T03:35:31.433Z,10.87
2022-12-03T03:38:34.114Z,9.63
2022-12-03T03:41:36.452Z,9.97
2022-12-03T03:44:38.308Z,9.87
2022-12-03T03:47:40.820Z,9.60
2022-12-03T03:50:44.393Z,10.20
2022-12-03T03:53:48.178Z,8.10
2022-12-03T03:56:50.008Z,9.67
2022-12-03T03:59:51.817Z,9.17
2022-12-03T04:02:54.350Z,9.63
2022-12-03T04:05:56.120Z,8.87
2022-12-03T04:08:57.871Z,8.93
2022-12-03T04:12:18.140Z,9.50
2022-12-03T04:15:19.823Z,8.63
2022-12-03T04:18:40.319Z,9.03
2022-12-03T04:22:00.721Z,8.47
2022-12-03T04:25:21.192Z,8.27
2022-12-03T04:28:41.603Z,9.47
2022-12-03T04:32:01.989Z,9.13
2022-12-03T04:35:22.454Z,8.80
2022-12-03T04:38:24.323Z,7.63
2022-12-03T04:41:26.071Z,9.03
2022-12-03T04:44:33.709Z,9.07
2022-12-03T04:47:39.753Z,8.90
2022-12-03T04:50:44.316Z,9.43
2022-12-03T04:53:46.441Z,9.00
2022-12-03T04:56:48.355Z,9.60
2022-12-03T04:59:50.055Z,9.90
2022-12-03T05:02:51.919Z,9.27
2022-12-03T05:05:53.599Z,9.40
2022-12-03T05:08:55.304Z,10.37
2022-12-03T05:11:57.068Z,8.30
2022-12-03T05:14:58.830Z,9.87
2022-12-03T05:18:00.514Z,9.10
2022-12-03T05:21:05.091Z,9.30
2022-12-03T05:24:06.965Z,9.87
2022-12-03T05:27:08.691Z,9.97
2022-12-03T05:30:10.885Z,9.13
2022-12-03T05:33:12.680Z,9.50
2022-12-03T05:36:14.342Z,9.07
2022-12-03T05:39:16.061Z,10.03
2022-12-03T05:42:36.260Z,8.83
2022-12-03T05:45:40.548Z,8.00
2022-12-03T05:48:42.335Z,8.90
2022-12-03T05:51:44.015Z,8.93
2022-12-03T05:54:45.664Z,8.40
2022-12-03T05:57:50.471Z,8.90
2022-12-03T06:00:52.124Z,8.80
2022-12-03T06:03:53.960Z,8.70
2022-12-03T06:06:57.656Z,8.40
2022-12-03T06:09:59.396Z,8.27
2022-12-03T06:13:10.958Z,8.40
2022-12-03T06:16:12.840Z,8.87
2022-12-03T06:19:14.506Z,8.90
2022-12-03T06:22:16.201Z,7.80
2022-12-03T06:25:18.123Z,7.13
2022-12-03T06:28:19.880Z,8.07
2022-12-03T06:31:23.126Z,7.90
2022-12-03T06:34:25.003Z,7.93
2022-12-03T06:37:26.682Z,8.33
2022-12-03T06:40:28.339Z,8.27
2022-12-03T06:43:32.634Z,8.07
2022-12-03T06:46:34.454Z,8.27
2022-12-03T06:49:36.136Z,10.23
2022-12-03T06:52:37.824Z,8.23
2022-12-03T06:55:39.496Z,8.33
2022-12-03T06:58:41.186Z,8.60
2022-12-03T07:01:42.992Z,11.37
2022-12-03T07:04:46.385Z,7.93
2022-12-03T07:07:52.307Z,7.63
2022-12-03T07:11:03.404Z,7.37
2022-12-03T07:14:06.973Z,7.03
2022-12-03T07:17:08.768Z,7.37
2022-12-03T07:20:10.837Z,6.53
2022-12-03T07:23:12.527Z,7.60
2022-12-03T07:26:14.223Z,6.60
2022-12-03T07:29:15.988Z,6.70
2022-12-03T07:32:17.820Z,7.03
2022-12-03T07:35:19.686Z,6.53
2022-12-03T07:38:21.432Z,7.17
2022-12-03T07:41:23.171Z,6.07
2022-12-03T07:44:24.935Z,6.47
2022-12-03T07:47:26.610Z,5.80
2022-12-03T07:50:28.341Z,6.10
2022-12-03T07:53:30.160Z,6.00
2022-12-03T07:56:31.844Z,5.60
2022-12-03T07:59:33.614Z,5.57
2022-12-03T08:02:35.414Z,5.27
2022-12-03T08:05:37.242Z,5.33
2022-12-03T08:08:43.961Z,5.23
2022-12-03T08:11:49.438Z,5.47
2022-12-03T08:14:51.458Z,5.00
2022-12-03T08:18:00.940Z,5.70
2022-12-03T08:21:04.044Z,5.47
2022-12-03T08:24:19.574Z,5.60
2022-12-03T08:27:21.236Z,5.57
2022-12-03T08:30:23.411Z,5.53
2022-12-03T08:33:28.654Z,5.10
2022-12-03T08:36:32.935Z,5.57
2022-12-03T08:39:40.336Z,5.13
2022-12-03T08:42:42.057Z,5.97
2022-12-03T08:45:45.573Z,5.77
2022-12-03T08:48:49.453Z,5.57
2022-12-03T08:51:57.241Z,6.27
2022-12-03T08:55:00.287Z,5.80
2022-12-03T08:58:23.941Z,6.30
2022-12-03T09:01:34.458Z,6.43
2022-12-03T09:04:45.465Z,7.13
2022-12-03T09:07:47.481Z,7.80
2022-12-03T09:11:04.303Z,7.13
2022-12-03T09:14:06.109Z,6.60
2022-12-03T09:17:07.880Z,7.47
2022-12-03T09:20:09.935Z,7.10
2022-12-03T09:23:14.240Z,7.13
2022-12-03T09:26:15.949Z,6.90
2022-12-03T09:29:17.664Z,7.97
2022-12-03T09:32:22.296Z,8.73
2022-12-03T09:35:25.910Z,7.73
2022-12-03T09:38:27.580Z,8.67
2022-12-03T09:41:44.642Z,9.33
2022-12-03T09:44:46.432Z,9.83
2022-12-03T09:47:49.304Z,10.37
2022-12-03T09:50:52.021Z,10.23
2022-12-03T09:53:53.724Z,9.70
2022-12-03T09:56:57.146Z,9.93
2022-12-03T09:59:59.314Z,10.67
2022-12-03T10:03:49.838Z,11.53
2022-12-03T10:06:58.372Z,11.30
2022-12-03T10:10:00.204Z,10.93
2022-12-03T10:13:02.233Z,11.53
2022-12-03T10:16:12.092Z,10.57
2022-12-03T10:19:23.307Z,11.80
2022-12-03T10:22:25.451Z,11.17
2022-12-03T10:25:27.124Z,11.87
2022-12-03T10:28:44.012Z,11.37
2022-12-03T10:31:52.818Z,12.40
2022-12-03T10:35:47.393Z,12.87
2022-12-03T10:39:07.950Z,11.83
2022-12-03T10:42:16.404Z,12.27
2022-12-03T10:45:23.491Z,12.70
2022-12-03T10:48:27.355Z,12.83
2022-12-03T10:51:29.040Z,13.90
2022-12-03T10:54:32.635Z,12.93
2022-12-03T10:57:34.304Z,12.83
2022-12-03T11:00:35.923Z,13.50
2022-12-03T11:03:40.958Z,14.10
2022-12-03T11:06:42.652Z,12.80
2022-12-03T11:09:52.614Z,13.17
2022-12-03T11:13:28.338Z,13.63
2022-12-03T11:16:39.155Z,14.00
2022-12-03T11:19:45.652Z,13.80
2022-12-03T11:22:49.096Z,14.27
2022-12-03T11:25:50.893Z,14.57
2022-12-03T11:28:58.305Z,14.00
2022-12-03T11:32:00.008Z,13.97
2022-12-03T11:35:03.718Z,14.73
2022-12-03T11:38:52.159Z,14.40
2022-12-03T11:42:28.386Z,13.00
2022-12-03T11:45:34.239Z,13.13
2022-12-03T11:48:46.928Z,14.53
2022-12-03T11:51:49.559Z,13.97
2022-12-03T11:54:58.276Z,13.90
2022-12-03T11:58:05.150Z,13.67
2022-12-03T12:01:08.318Z,14.50
2022-12-03T12:04:27.624Z,14.50
2022-12-03T12:07:36.751Z,13.93
2022-12-03T12:10:45.177Z,14.23
2022-12-03T12:13:54.543Z,14.37
2022-12-03T12:16:58.405Z,15.53
2022-12-03T12:20:25.180Z,14.90
2022-12-03T12:23:29.014Z,13.97
2022-12-03T12:26:30.983Z,14.67
2022-12-03T12:29:33.098Z,14.80
2022-12-03T12:32:57.905Z,13.63
2022-12-03T12:35:59.534Z,14.67
2022-12-03T12:39:01.202Z,15.30
2022-12-03T12:42:07.763Z,13.93
2022-12-03T12:45:24.863Z,15.50
2022-12-03T12:48:30.033Z,15.47
2022-12-03T12:51:31.838Z,14.57
2022-12-03T12:54:33.563Z,14.23
2022-12-03T12:57:35.248Z,15.20
2022-12-03T13:00:37.297Z,15.60
2022-12-03T13:03:39.693Z,15.33
2022-12-03T13:06:42.063Z,14.93
2022-12-03T13:09:43.768Z,15.30
2022-12-03T13:12:45.420Z,15.53
2022-12-03T13:15:57.200Z,15.23
2022-12-03T13:19:00.574Z,17.17
2022-12-03T13:22:11.070Z,15.63
2022-12-03T13:25:57.310Z,16.07
2022-12-03T13:28:57.284Z,15.17
2022-12-03T13:32:01.477Z,15.57
2022-12-03T13:35:17.102Z,16.17
2022-12-03T13:38:20.308Z,16.07
2022-12-03T13:41:40.498Z,16.30
2022-12-03T13:44:46.144Z,16.13
2022-12-03T13:47:49.679Z,16.60
2022-12-03T13:50:52.754Z,16.17
2022-12-03T13:53:54.980Z,16.13
2022-12-03T13:56:56.572Z,16.43
2022-12-03T13:59:58.201Z,15.00
2022-12-03T14:02:59.798Z,15.63
2022-12-03T14:06:01.426Z,16.23
2022-12-03T14:09:03.290Z,15.67
2022-12-03T14:12:24.589Z,16.17
2022-12-03T14:15:26.380Z,16.50
2022-12-03T14:18:28.391Z,16.03
2022-12-03T14:21:31.158Z,14.73
2022-12-03T14:24:32.858Z,15.70
2022-12-03T14:27:34.515Z,16.80
2022-12-03T14:30:36.587Z,16.27
2022-12-03T14:33:53.504Z,15.67
2022-12-03T14:36:55.149Z,15.63
2022-12-03T14:39:57.188Z,15.00
2022-12-03T14:42:59.135Z,14.87
2022-12-03T14:46:00.893Z,15.20
2022-12-03T14:49:02.604Z,14.43
2022-12-03T14:52:08.493Z,15.83
2022-12-03T14:55:12.940Z,16.03
2022-12-03T14:58:14.635Z,16.07
2022-12-03T15:01:16.440Z,15.33
2022-12-03T15:04:18.269Z,16.43
2022-12-03T15:07:19.881Z,16.13
2022-12-03T15:14:44.227Z,16.00
2022-12-03T15:17:47.170Z,17.10
2022-12-03T15:21:14.757Z,16.47
2022-12-03T15:24:17.004Z,16.20
2022-12-03T15:27:18.659Z,15.47
2022-12-03T15:30:20.653Z,16.13
2022-12-03T15:33:22.279Z,16.30
2022-12-03T15:36:23.928Z,17.40
2022-12-03T15:39:25.617Z,16.97
2022-12-03T15:42:29.634Z,17.60
2022-12-03T15:45:31.369Z,17.30
2022-12-03T15:48:34.139Z,17.10
2022-12-03T15:51:35.841Z,16.20
2022-12-03T15:54:37.663Z,17.57
2022-12-03T15:57:51.635Z,18.37
2022-12-03T16:00:53.300Z,19.53
2022-12-03T16:03:54.993Z,17.47
2022-12-03T16:06:56.641Z,17.17
2022-12-03T16:09:58.788Z,18.13
2022-12-03T16:13:00.421Z,18.80
2022-12-03T16:16:05.438Z,17.83
2022-12-03T16:19:07.112Z,18.53
2022-12-03T16:22:09.078Z,16.97
2022-12-03T16:25:10.689Z,18.37
2022-12-03T16:28:15.534Z,17.97
2022-12-03T16:31:30.011Z,18.47
2022-12-03T16:34:31.703Z,18.77
2022-12-03T16:37:33.363Z,18.33
2022-12-03T16:40:35.038Z,19.40
2022-12-03T16:43:38.706Z,19.77
2022-12-03T16:46:40.378Z,19.53
2022-12-03T16:49:42.044Z,20.83
2022-12-03T16:52:43.724Z,19.30
2022-12-03T16:55:45.464Z,19.93
2022-12-03T16:58:47.132Z,19.23
2022-12-03T17:01:48.889Z,21.60
2022-12-03T17:04:50.672Z,20.27
2022-12-03T17:07:52.410Z,20.20
2022-12-03T17:10:54.313Z,19.97
2022-12-03T17:13:56.006Z,20.77
2022-12-03T17:16:57.765Z,20.73
2022-12-03T17:19:59.422Z,19.77
2022-12-03T17:23:01.392Z,20.67
2022-12-03T17:26:03.043Z,21.53
2022-12-03T17:29:04.794Z,21.20
2022-12-03T17:32:06.565Z,21.43
2022-12-03T17:35:09.336Z,20.67
2022-12-03T17:38:11.134Z,20.33
2022-12-03T17:41:12.798Z,22.50
2022-12-03T17:44:19.438Z,21.37
2022-12-03T17:47:22.738Z,20.30
2022-12-03T17:50:24.420Z,20.93
2022-12-03T17:53:26.266Z,20.47
2022-12-03T17:56:27.980Z,21.77
2022-12-03T17:59:29.780Z,23.03
2022-12-03T18:02:31.482Z,23.13
2022-12-03T18:05:33.174Z,22.60
2022-12-03T18:08:34.835Z,22.13
2022-12-03T18:11:36.529Z,21.90
2022-12-03T18:14:38.198Z,21.87
2022-12-03T18:17:39.966Z,22.80
2022-12-03T18:20:41.711Z,24.03
2022-12-03T18:23:43.336Z,22.73
2022-12-03T18:26:45.016Z,22.70
2022-12-03T18:29:46.626Z,21.53
2022-12-03T18:32:48.279Z,21.30
2022-12-03T18:35:54.245Z,23.43
2022-12-03T18:39:00.536Z,22.43
2022-12-03T18:42:09.125Z,23.23
2022-12-03T18:45:17.296Z,21.87
2022-12-03T18:48:20.006Z,23.27
2022-12-03T18:51:23.852Z,22.30
2022-12-03T18:54:25.517Z,23.00
2022-12-03T18:57:27.138Z,23.40
2022-12-03T19:00:28.961Z,22.70
2022-12-03T19:03:31.408Z,22.57
2022-12-03T19:06:33.099Z,22.73
2022-12-03T19:09:34.876Z,22.33
2022-12-03T19:12:37.400Z,22.17
2022-12-03T19:15:39.529Z,23.27
2022-12-03T19:18:41.205Z,21.00
2022-12-03T19:21:42.869Z,22.90
2022-12-03T19:24:44.646Z,23.50
2022-12-03T19:27:46.292Z,22.93
2022-12-03T19:30:56.728Z,22.73
2022-12-03T19:33:58.510Z,21.77
2022-12-03T19:37:00.342Z,22.20
2022-12-03T19:40:02.117Z,21.53
2022-12-03T19:43:03.791Z,21.00
2022-12-03T19:46:11.077Z,20.53
2022-12-03T19:49:12.809Z,22.10
2022-12-03T19:52:14.697Z,21.60
2022-12-03T19:55:19.385Z,20.43
2022-12-03T19:58:21.727Z,20.77
2022-12-03T20:01:26.693Z,20.43
2022-12-03T20:04:28.557Z,19.90
2022-12-03T20:07:30.281Z,20.27
2022-12-03T20:10:32.827Z,20.27
2022-12-03T20:13:36.523Z,19.27
2022-12-03T20:16:38.494Z,19.93
2022-12-03T20:19:40.273Z,19.17
2022-12-03T20:22:41.956Z,19.50
2022-12-03T20:25:43.773Z,19.63
2022-12-03T20:28:47.924Z,20.23
2022-12-03T20:31:49.723Z,21.10
2022-12-03T20:34:51.428Z,20.23
2022-12-03T20:37:53.079Z,19.20
2022-12-03T20:40:57.449Z,18.87
2022-12-03T20:43:59.165Z,20.17
2022-12-03T20:47:00.790Z,20.87
2022-12-03T20:50:02.459Z,18.57
2022-12-03T20:53:23.802Z,19.60
2022-12-03T20:56:32.724Z,18.83
2022-12-03T20:59:34.489Z,18.43
2022-12-03T21:02:37.502Z,20.27
2022-12-03T21:05:39.178Z,18.87
2022-12-03T21:08:42.566Z,19.63
2022-12-03T21:11:50.402Z,18.70
2022-12-03T21:14:52.061Z,18.90
2022-12-03T21:17:53.903Z,18.70
2022-12-03T21:20:55.578Z,18.33
2022-12-03T21:23:57.651Z,17.77
2022-12-03T21:26:59.428Z,18.93
2022-12-03T21:30:01.163Z,19.03
2022-12-03T21:33:05.066Z,18.47
2022-12-03T21:36:07.785Z,18.47
2022-12-03T21:39:09.571Z,17.77
2022-12-03T21:42:22.126Z,18.37
2022-12-03T21:45:35.463Z,17.83
2022-12-03T21:48:37.137Z,17.43
2022-12-03T21:51:40.967Z,18.43
2022-12-03T21:54:42.723Z,18.60
2022-12-03T21:57:44.438Z,18.03
2022-12-03T22:00:46.116Z,17.50
2022-12-03T22:03:48.416Z,15.53
2022-12-03T22:06:50.068Z,19.00
2022-12-03T22:09:51.986Z,17.47
2022-12-03T22:12:55.939Z,18.03
2022-12-03T22:15:57.730Z,18.13
2022-12-03T22:19:01.858Z,17.60
2022-12-03T22:22:03.516Z,17.23
2022-12-03T22:25:24.391Z,17.83
2022-12-03T22:28:29.092Z,17.70
2022-12-03T22:31:30.831Z,17.27
2022-12-03T22:34:32.652Z,16.37
2022-12-03T22:37:34.460Z,17.87
2022-12-03T22:40:39.482Z,16.57
2022-12-03T22:43:41.241Z,14.93
2022-12-03T22:46:47.496Z,17.70
2022-12-03T22:49:55.787Z,18.23
2022-12-03T22:52:57.703Z,16.73
2022-12-03T22:56:00.076Z,17.97
2022-12-03T22:59:01.774Z,18.17
2022-12-03T23:02:03.511Z,17.67
2022-12-03T23:05:05.680Z,16.93
2022-12-03T23:08:09.747Z,16.70
2022-12-03T23:11:23.517Z,16.27
2022-12-03T23:14:25.165Z,16.77
2022-12-03T23:17:26.853Z,16.23
2022-12-03T23:20:29.007Z,17.40
2022-12-03T23:23:30.669Z,16.67
2022-12-03T23:26:36.017Z,18.07
2022-12-03T23:29:37.647Z,15.93
2022-12-03T23:32:39.344Z,15.57
2022-12-03T23:35:40.980Z,16.27
2022-12-03T23:38:42.676Z,16.23
2022-12-03T23:41:44.353Z,15.23
2022-12-03T23:44:45.967Z,15.33
2022-12-03T23:47:47.589Z,15.87
2022-12-03T23:50:49.287Z,14.37
2022-12-03T23:53:53.012Z,14.73
2022-12-03T23:56:54.840Z,14.90
2022-12-03T23:59:56.873Z,15.73
